sensor_id;sensor_type;location;lat;lon;timestamp;pressure;altitude;pressure_sealevel;temperature;humidity
62524;BME280;53689;56.878;60.672;2024-02-23T00:00:37;99446.03;;;20.57;23.22
62524;BME280;53689;56.878;60.672;2024-02-23T00:03:05;99438.91;;;20.40;21.30
62524;BME280;53689;56.878;60.672;2024-02-23T00:05:34;99440.31;;;20.52;22.99
62524;BME280;53689;56.878;60.672;2024-02-23T00:08:03;99453.47;;;20.63;23.25
62524;BME280;53689;56.878;60.672;2024-02-23T00:10:31;99442.13;;;20.51;22.40
62524;BME280;53689;56.878;60.672;2024-02-23T00:12:59;99451.25;;;20.59;21.76
62524;BME280;53689;56.878;60.672;2024-02-23T00:15:27;99457.94;;;20.46;22.79
62524;BME280;53689;56.878;60.672;2024-02-23T00:17:55;99447.97;;;20.38;23.23
62524;BME280;53689;56.878;60.672;2024-02-23T00:20:23;99457.78;;;20.56;23.48
62524;BME280;53689;56.878;60.672;2024-02-23T00:22:51;99457.81;;;20.64;23.20
62524;BME280;53689;56.878;60.672;2024-02-23T00:25:20;99459.19;;;20.34;24.05
62524;BME280;53689;56.878;60.672;2024-02-23T00:27:48;99462.16;;;20.49;23.54
62524;BME280;53689;56.878;60.672;2024-02-23T00:30:17;99457.00;;;20.64;21.54
62524;BME280;53689;56.878;60.672;2024-02-23T00:32:45;99459.28;;;20.50;22.12
62524;BME280;53689;56.878;60.672;2024-02-23T00:35:12;99456.50;;;20.26;21.23
62524;BME280;53689;56.878;60.672;2024-02-23T00:37:40;99465.38;;;20.61;22.83
62524;BME280;53689;56.878;60.672;2024-02-23T00:40:09;99451.59;;;20.21;22.08
62524;BME280;53689;56.878;60.672;2024-02-23T00:42:39;99455.91;;;20.48;23.33
62524;BME280;53689;56.878;60.672;2024-02-23T00:45:07;99455.47;;;20.61;23.02
62524;BME280;53689;56.878;60.672;2024-02-23T00:47:35;99452.75;;;20.53;21.81
62524;BME280;53689;56.878;60.672;2024-02-23T00:50:04;99454.06;;;20.41;23.56
62524;BME280;53689;56.878;60.672;2024-02-23T00:52:31;99458.97;;;20.54;20.81
62524;BME280;53689;56.878;60.672;2024-02-23T00:54:59;99456.22;;;20.37;23.53
62524;BME280;53689;56.878;60.672;2024-02-23T00:57:27;99446.75;;;20.76;22.72
62524;BME280;53689;56.878;60.672;2024-02-23T00:59:57;99449.28;;;20.77;23.23
62524;BME280;53689;56.878;60.672;2024-02-23T01:02:25;99446.50;;;20.44;22.65
62524;BME280;53689;56.878;60.672;2024-02-23T01:04:55;99458.09;;;20.45;24.06
62524;BME280;53689;56.878;60.672;2024-02-23T01:07:23;99465.63;;;20.41;24.14
62524;BME280;53689;56.878;60.672;2024-02-23T01:09:52;99464.50;;;20.52;23.23
62524;BME280;53689;56.878;60.672;2024-02-23T01:12:20;99457.50;;;20.68;23.29
62524;BME280;53689;56.878;60.672;2024-02-23T01:14:48;99460.16;;;20.51;23.30
62524;BME280;53689;56.878;60.672;2024-02-23T01:17:18;99465.44;;;20.34;23.61
62524;BME280;53689;56.878;60.672;2024-02-23T01:19:45;99463.13;;;20.40;23.21
62524;BME280;53689;56.878;60.672;2024-02-23T01:22:13;99458.56;;;20.40;24.02
62524;BME280;53689;56.878;60.672;2024-02-23T01:24:41;99464.44;;;20.35;18.93
62524;BME280;53689;56.878;60.672;2024-02-23T01:27:09;99463.19;;;20.21;22.54
62524;BME280;53689;56.878;60.672;2024-02-23T01:29:37;99468.41;;;20.23;23.91
62524;BME280;53689;56.878;60.672;2024-02-23T01:32:05;99469.75;;;20.54;23.36
62524;BME280;53689;56.878;60.672;2024-02-23T01:34:34;99468.59;;;20.30;23.59
62524;BME280;53689;56.878;60.672;2024-02-23T01:37:03;99472.69;;;20.07;22.29
62524;BME280;53689;56.878;60.672;2024-02-23T01:39:31;99464.19;;;20.55;23.39
62524;BME280;53689;56.878;60.672;2024-02-23T01:41:59;99465.91;;;20.30;21.54
62524;BME280;53689;56.878;60.672;2024-02-23T01:44:27;99471.69;;;20.35;23.81
62524;BME280;53689;56.878;60.672;2024-02-23T01:46:55;99459.53;;;20.31;22.33
62524;BME280;53689;56.878;60.672;2024-02-23T01:49:23;99469.00;;;20.35;23.33
62524;BME280;53689;56.878;60.672;2024-02-23T01:51:52;99473.09;;;20.56;22.55
62524;BME280;53689;56.878;60.672;2024-02-23T01:54:20;99475.84;;;20.64;23.38
62524;BME280;53689;56.878;60.672;2024-02-23T01:56:48;99480.81;;;20.50;23.16
62524;BME280;53689;56.878;60.672;2024-02-23T01:59:16;99479.47;;;20.46;23.24
62524;BME280;53689;56.878;60.672;2024-02-23T02:01:45;99485.50;;;20.14;21.88
62524;BME280;53689;56.878;60.672;2024-02-23T02:04:13;99483.31;;;20.44;23.98
62524;BME280;53689;56.878;60.672;2024-02-23T02:06:41;99479.75;;;20.43;23.99
62524;BME280;53689;56.878;60.672;2024-02-23T02:09:12;99490.59;;;20.25;23.92
62524;BME280;53689;56.878;60.672;2024-02-23T02:11:45;99497.81;;;20.24;23.92
62524;BME280;53689;56.878;60.672;2024-02-23T02:14:14;99493.34;;;20.33;23.98
62524;BME280;53689;56.878;60.672;2024-02-23T02:16:43;99496.97;;;20.24;22.45
62524;BME280;53689;56.878;60.672;2024-02-23T02:19:10;99486.09;;;20.26;21.02
62524;BME280;53689;56.878;60.672;2024-02-23T02:21:39;99496.41;;;20.12;22.41
62524;BME280;53689;56.878;60.672;2024-02-23T02:24:07;99491.34;;;19.91;20.48
62524;BME280;53689;56.878;60.672;2024-02-23T02:26:39;99499.06;;;19.86;21.02
62524;BME280;53689;56.878;60.672;2024-02-23T02:29:07;99499.41;;;20.09;22.18
62524;BME280;53689;56.878;60.672;2024-02-23T02:31:35;99500.81;;;19.77;20.02
62524;BME280;53689;56.878;60.672;2024-02-23T02:34:03;99504.59;;;19.66;19.65
62524;BME280;53689;56.878;60.672;2024-02-23T02:36:32;99503.97;;;19.90;21.10
62524;BME280;53689;56.878;60.672;2024-02-23T02:38:59;99498.56;;;19.64;20.30
62524;BME280;53689;56.878;60.672;2024-02-23T02:41:28;99496.69;;;19.64;21.45
62524;BME280;53689;56.878;60.672;2024-02-23T02:43:58;99498.03;;;19.87;22.25
62524;BME280;53689;56.878;60.672;2024-02-23T02:46:26;99485.38;;;19.97;22.80
62524;BME280;53689;56.878;60.672;2024-02-23T02:48:54;99504.81;;;19.73;19.51
62524;BME280;53689;56.878;60.672;2024-02-23T02:51:22;99497.66;;;18.53;19.57
62524;BME280;53689;56.878;60.672;2024-02-23T02:53:50;99500.13;;;18.74;18.84
62524;BME280;53689;56.878;60.672;2024-02-23T02:56:18;99504.66;;;19.02;19.46
62524;BME280;53689;56.878;60.672;2024-02-23T02:58:46;99512.44;;;19.41;21.36
62524;BME280;53689;56.878;60.672;2024-02-23T03:01:15;99511.97;;;19.46;20.34
62524;BME280;53689;56.878;60.672;2024-02-23T03:03:43;99511.91;;;19.55;21.40
62524;BME280;53689;56.878;60.672;2024-02-23T03:06:11;99510.81;;;19.66;21.43
62524;BME280;53689;56.878;60.672;2024-02-23T03:08:39;99519.66;;;19.40;21.95
62524;BME280;53689;56.878;60.672;2024-02-23T03:11:09;99511.56;;;19.77;21.67
62524;BME280;53689;56.878;60.672;2024-02-23T03:13:37;99515.81;;;19.61;22.69
62524;BME280;53689;56.878;60.672;2024-02-23T03:16:04;99514.63;;;20.00;21.38
62524;BME280;53689;56.878;60.672;2024-02-23T03:18:34;99509.25;;;20.00;22.80
62524;BME280;53689;56.878;60.672;2024-02-23T03:21:02;99500.19;;;20.01;21.69
62524;BME280;53689;56.878;60.672;2024-02-23T03:23:29;99502.22;;;20.34;22.63
62524;BME280;53689;56.878;60.672;2024-02-23T03:25:57;99504.94;;;20.07;22.86
62524;BME280;53689;56.878;60.672;2024-02-23T03:28:25;99518.16;;;20.01;22.92
62524;BME280;53689;56.878;60.672;2024-02-23T03:30:53;99517.69;;;20.05;21.83
62524;BME280;53689;56.878;60.672;2024-02-23T03:33:21;99516.69;;;20.33;21.75
62524;BME280;53689;56.878;60.672;2024-02-23T03:35:51;99522.44;;;20.38;21.48
62524;BME280;53689;56.878;60.672;2024-02-23T03:38:19;99516.28;;;20.19;23.09
62524;BME280;53689;56.878;60.672;2024-02-23T03:40:47;99516.97;;;19.95;23.58
62524;BME280;53689;56.878;60.672;2024-02-23T03:43:15;99517.50;;;20.25;21.43
62524;BME280;53689;56.878;60.672;2024-02-23T03:45:42;99524.41;;;20.28;21.91
62524;BME280;53689;56.878;60.672;2024-02-23T03:48:10;99529.09;;;20.26;22.47
62524;BME280;53689;56.878;60.672;2024-02-23T03:50:38;99537.88;;;20.09;21.93
62524;BME280;53689;56.878;60.672;2024-02-23T03:53:08;99534.84;;;20.04;22.77
62524;BME280;53689;56.878;60.672;2024-02-23T03:55:35;99537.75;;;19.93;22.27
62524;BME280;53689;56.878;60.672;2024-02-23T03:58:04;99538.38;;;19.87;21.57
62524;BME280;53689;56.878;60.672;2024-02-23T04:00:32;99535.50;;;20.33;23.59
62524;BME280;53689;56.878;60.672;2024-02-23T04:03:00;99540.94;;;20.41;23.13
62524;BME280;53689;56.878;60.672;2024-02-23T04:05:27;99543.66;;;20.15;23.48
62524;BME280;53689;56.878;60.672;2024-02-23T04:07:55;99541.91;;;20.05;24.29
62524;BME280;53689;56.878;60.672;2024-02-23T04:10:24;99543.16;;;20.46;23.24
62524;BME280;53689;56.878;60.672;2024-02-23T04:12:52;99534.09;;;19.94;23.34
62524;BME280;53689;56.878;60.672;2024-02-23T04:15:21;99533.56;;;20.17;22.87
62524;BME280;53689;56.878;60.672;2024-02-23T04:17:48;99540.97;;;20.15;23.25
62524;BME280;53689;56.878;60.672;2024-02-23T04:20:16;99542.38;;;20.27;22.70
62524;BME280;53689;56.878;60.672;2024-02-23T04:22:44;99540.38;;;20.29;23.05
62524;BME280;53689;56.878;60.672;2024-02-23T04:25:12;99538.06;;;20.08;22.65
62524;BME280;53689;56.878;60.672;2024-02-23T04:27:42;99546.19;;;20.43;23.69
62524;BME280;53689;56.878;60.672;2024-02-23T04:30:10;99537.69;;;20.29;22.78
62524;BME280;53689;56.878;60.672;2024-02-23T04:32:39;99544.78;;;20.30;22.92
62524;BME280;53689;56.878;60.672;2024-02-23T04:35:08;99543.53;;;20.51;22.53
62524;BME280;53689;56.878;60.672;2024-02-23T04:37:36;99548.19;;;20.41;23.38
62524;BME280;53689;56.878;60.672;2024-02-23T04:40:04;99551.97;;;20.56;23.40
62524;BME280;53689;56.878;60.672;2024-02-23T04:42:33;99552.88;;;20.38;23.63
62524;BME280;53689;56.878;60.672;2024-02-23T04:45:03;99556.56;;;20.37;23.21
62524;BME280;53689;56.878;60.672;2024-02-23T04:47:31;99551.63;;;20.51;23.22
62524;BME280;53689;56.878;60.672;2024-02-23T04:49:59;99554.34;;;20.59;23.69
62524;BME280;53689;56.878;60.672;2024-02-23T04:52:27;99552.91;;;20.20;23.52
62524;BME280;53689;56.878;60.672;2024-02-23T04:54:54;99548.66;;;20.36;23.55
62524;BME280;53689;56.878;60.672;2024-02-23T04:57:22;99548.13;;;20.59;23.26
62524;BME280;53689;56.878;60.672;2024-02-23T04:59:50;99549.75;;;20.51;23.25
62524;BME280;53689;56.878;60.672;2024-02-23T05:02:20;99556.50;;;20.29;23.75
62524;BME280;53689;56.878;60.672;2024-02-23T05:04:48;99558.72;;;20.60;24.12
62524;BME280;53689;56.878;60.672;2024-02-23T05:07:15;99554.53;;;20.66;23.48
62524;BME280;53689;56.878;60.672;2024-02-23T05:09:43;99560.66;;;20.76;23.03
62524;BME280;53689;56.878;60.672;2024-02-23T05:12:11;99557.09;;;20.41;22.64
62524;BME280;53689;56.878;60.672;2024-02-23T05:14:39;99552.66;;;20.58;23.25
62524;BME280;53689;56.878;60.672;2024-02-23T05:17:07;99559.19;;;20.56;22.81
62524;BME280;53689;56.878;60.672;2024-02-23T05:19:36;99560.38;;;20.53;21.90
62524;BME280;53689;56.878;60.672;2024-02-23T05:22:04;99561.31;;;20.44;22.89
62524;BME280;53689;56.878;60.672;2024-02-23T05:24:32;99565.50;;;20.73;23.39
62524;BME280;53689;56.878;60.672;2024-02-23T05:27:00;99565.78;;;20.61;23.47
62524;BME280;53689;56.878;60.672;2024-02-23T05:29:28;99564.47;;;20.39;23.61
62524;BME280;53689;56.878;60.672;2024-02-23T05:31:56;99565.63;;;20.36;22.90
62524;BME280;53689;56.878;60.672;2024-02-23T05:34:23;99566.13;;;20.66;23.91
62524;BME280;53689;56.878;60.672;2024-02-23T05:36:53;99558.38;;;20.29;22.99
62524;BME280;53689;56.878;60.672;2024-02-23T05:39:22;99554.84;;;20.63;23.52
62524;BME280;53689;56.878;60.672;2024-02-23T05:41:50;99553.16;;;20.62;22.37
62524;BME280;53689;56.878;60.672;2024-02-23T05:44:18;99558.84;;;20.85;23.34
62524;BME280;53689;56.878;60.672;2024-02-23T05:46:46;99567.63;;;20.61;23.21
62524;BME280;53689;56.878;60.672;2024-02-23T05:49:14;99562.38;;;20.51;20.36
62524;BME280;53689;56.878;60.672;2024-02-23T05:51:42;99571.31;;;20.60;22.71
62524;BME280;53689;56.878;60.672;2024-02-23T05:54:11;99570.16;;;20.62;22.60
62524;BME280;53689;56.878;60.672;2024-02-23T05:56:39;99570.97;;;20.55;23.22
62524;BME280;53689;56.878;60.672;2024-02-23T05:59:07;99570.72;;;20.40;22.61
62524;BME280;53689;56.878;60.672;2024-02-23T06:01:35;99573.34;;;20.31;22.80
62524;BME280;53689;56.878;60.672;2024-02-23T06:04:03;99571.63;;;20.83;23.89
62524;BME280;53689;56.878;60.672;2024-02-23T06:06:31;99573.09;;;20.77;23.56
62524;BME280;53689;56.878;60.672;2024-02-23T06:08:59;99573.09;;;20.43;22.62
62524;BME280;53689;56.878;60.672;2024-02-23T06:11:29;99571.94;;;20.80;22.90
62524;BME280;53689;56.878;60.672;2024-02-23T06:13:57;99577.44;;;20.70;24.05
62524;BME280;53689;56.878;60.672;2024-02-23T06:16:25;99575.53;;;20.62;23.48
62524;BME280;53689;56.878;60.672;2024-02-23T06:18:53;99578.81;;;20.48;21.23
62524;BME280;53689;56.878;60.672;2024-02-23T06:21:21;99583.16;;;20.67;23.13
62524;BME280;53689;56.878;60.672;2024-02-23T06:23:50;99585.50;;;20.70;23.00
62524;BME280;53689;56.878;60.672;2024-02-23T06:26:17;99590.41;;;20.75;22.95
62524;BME280;53689;56.878;60.672;2024-02-23T06:28:46;99583.53;;;20.80;23.64
62524;BME280;53689;56.878;60.672;2024-02-23T06:31:14;99589.34;;;20.59;23.71
62524;BME280;53689;56.878;60.672;2024-02-23T06:33:43;99595.38;;;20.61;23.21
62524;BME280;53689;56.878;60.672;2024-02-23T06:36:11;99593.53;;;20.35;22.88
62524;BME280;53689;56.878;60.672;2024-02-23T06:38:39;99588.84;;;20.37;22.93
62524;BME280;53689;56.878;60.672;2024-02-23T06:41:07;99592.03;;;20.59;23.51
62524;BME280;53689;56.878;60.672;2024-02-23T06:43:34;99603.72;;;20.50;22.97
62524;BME280;53689;56.878;60.672;2024-02-23T06:46:06;99602.19;;;20.74;23.38
62524;BME280;53689;56.878;60.672;2024-02-23T06:48:34;99600.19;;;20.49;23.33
62524;BME280;53689;56.878;60.672;2024-02-23T06:51:02;99597.63;;;20.48;21.85
62524;BME280;53689;56.878;60.672;2024-02-23T06:53:30;99592.72;;;20.43;23.38
62524;BME280;53689;56.878;60.672;2024-02-23T06:55:58;99589.72;;;20.20;21.74
62524;BME280;53689;56.878;60.672;2024-02-23T06:58:27;99583.66;;;20.71;23.67
62524;BME280;53689;56.878;60.672;2024-02-23T07:00:55;99589.00;;;20.62;22.16
62524;BME280;53689;56.878;60.672;2024-02-23T07:03:24;99590.84;;;20.35;22.85
62524;BME280;53689;56.878;60.672;2024-02-23T07:05:52;99586.06;;;20.21;22.68
62524;BME280;53689;56.878;60.672;2024-02-23T07:08:19;99589.47;;;20.58;23.18
62524;BME280;53689;56.878;60.672;2024-02-23T07:10:47;99594.19;;;20.56;23.03
62524;BME280;53689;56.878;60.672;2024-02-23T07:13:15;99591.50;;;20.82;22.39
62524;BME280;53689;56.878;60.672;2024-02-23T07:15:43;99606.31;;;20.86;22.33
62524;BME280;53689;56.878;60.672;2024-02-23T07:18:11;99611.06;;;20.66;22.59
62524;BME280;53689;56.878;60.672;2024-02-23T07:20:40;99606.44;;;20.50;22.25
62524;BME280;53689;56.878;60.672;2024-02-23T07:23:08;99609.53;;;20.63;22.67
62524;BME280;53689;56.878;60.672;2024-02-23T07:25:36;99607.94;;;20.52;20.99
62524;BME280;53689;56.878;60.672;2024-02-23T07:28:04;99611.78;;;20.76;22.98
62524;BME280;53689;56.878;60.672;2024-02-23T07:30:32;99615.84;;;20.28;22.20
62524;BME280;53689;56.878;60.672;2024-02-23T07:33:00;99612.91;;;20.39;23.06
62524;BME280;53689;56.878;60.672;2024-02-23T07:35:28;99609.13;;;20.50;23.05
62524;BME280;53689;56.878;60.672;2024-02-23T07:37:58;99609.13;;;20.50;22.47
62524;BME280;53689;56.878;60.672;2024-02-23T07:40:26;99605.78;;;20.56;22.25
62524;BME280;53689;56.878;60.672;2024-02-23T07:42:53;99608.38;;;20.40;22.43
62524;BME280;53689;56.878;60.672;2024-02-23T07:45:21;99612.34;;;20.54;22.38
62524;BME280;53689;56.878;60.672;2024-02-23T07:47:49;99607.38;;;20.67;22.07
62524;BME280;53689;56.878;60.672;2024-02-23T07:50:17;99615.63;;;20.74;22.87
62524;BME280;53689;56.878;60.672;2024-02-23T07:52:45;99610.75;;;20.43;21.33
62524;BME280;53689;56.878;60.672;2024-02-23T07:55:15;99608.69;;;20.89;21.49
62524;BME280;53689;56.878;60.672;2024-02-23T07:57:43;99613.63;;;20.76;22.52
62524;BME280;53689;56.878;60.672;2024-02-23T08:00:12;99619.13;;;20.40;20.12
62524;BME280;53689;56.878;60.672;2024-02-23T08:02:40;99609.41;;;20.47;23.21
62524;BME280;53689;56.878;60.672;2024-02-23T08:05:08;99612.88;;;20.84;23.12
62524;BME280;53689;56.878;60.672;2024-02-23T08:07:36;99611.38;;;20.89;22.26
62524;BME280;53689;56.878;60.672;2024-02-23T08:10:04;99611.88;;;20.66;23.15
62524;BME280;53689;56.878;60.672;2024-02-23T08:12:34;99623.13;;;20.62;21.82
62524;BME280;53689;56.878;60.672;2024-02-23T08:15:08;99622.31;;;20.43;22.16
62524;BME280;53689;56.878;60.672;2024-02-23T08:17:37;99616.66;;;20.28;19.70
62524;BME280;53689;56.878;60.672;2024-02-23T08:20:06;99617.28;;;20.40;20.32
62524;BME280;53689;56.878;60.672;2024-02-23T08:22:35;99617.94;;;20.16;19.62
62524;BME280;53689;56.878;60.672;2024-02-23T08:25:04;99619.94;;;19.95;20.36
62524;BME280;53689;56.878;60.672;2024-02-23T08:27:33;99623.47;;;19.96;20.35
62524;BME280;53689;56.878;60.672;2024-02-23T08:30:02;99619.09;;;19.95;19.59
62524;BME280;53689;56.878;60.672;2024-02-23T08:32:30;99619.53;;;19.90;19.99
62524;BME280;53689;56.878;60.672;2024-02-23T08:34:58;99616.84;;;20.27;21.51
62524;BME280;53689;56.878;60.672;2024-02-23T08:37:27;99625.72;;;19.91;19.88
62524;BME280;53689;56.878;60.672;2024-02-23T08:39:55;99628.88;;;19.86;20.33
62524;BME280;53689;56.878;60.672;2024-02-23T08:42:23;99622.28;;;19.80;19.85
62524;BME280;53689;56.878;60.672;2024-02-23T08:44:53;99631.19;;;19.81;20.45
62524;BME280;53689;56.878;60.672;2024-02-23T08:47:21;99622.38;;;19.89;20.07
62524;BME280;53689;56.878;60.672;2024-02-23T08:49:48;99629.91;;;20.21;22.28
62524;BME280;53689;56.878;60.672;2024-02-23T08:52:16;99624.50;;;19.85;20.25
62524;BME280;53689;56.878;60.672;2024-02-23T08:54:44;99639.13;;;19.82;20.81
62524;BME280;53689;56.878;60.672;2024-02-23T08:57:12;99637.13;;;19.85;20.17
62524;BME280;53689;56.878;60.672;2024-02-23T08:59:40;99635.03;;;19.78;20.53
62524;BME280;53689;56.878;60.672;2024-02-23T09:02:09;99645.56;;;19.90;21.06
62524;BME280;53689;56.878;60.672;2024-02-23T09:04:37;99635.22;;;20.13;21.09
62524;BME280;53689;56.878;60.672;2024-02-23T09:07:05;99640.59;;;19.95;21.87
62524;BME280;53689;56.878;60.672;2024-02-23T09:09:35;99636.53;;;20.09;20.72
62524;BME280;53689;56.878;60.672;2024-02-23T09:12:04;99647.69;;;19.86;19.70
62524;BME280;53689;56.878;60.672;2024-02-23T09:14:32;99636.31;;;20.47;22.32
62524;BME280;53689;56.878;60.672;2024-02-23T09:17:01;99645.78;;;20.51;20.75
62524;BME280;53689;56.878;60.672;2024-02-23T09:19:30;99634.19;;;20.32;20.97
62524;BME280;53689;56.878;60.672;2024-02-23T09:21:58;99637.50;;;20.71;22.29
62524;BME280;53689;56.878;60.672;2024-02-23T09:24:26;99649.25;;;20.25;22.65
62524;BME280;53689;56.878;60.672;2024-02-23T09:26:54;99643.09;;;20.51;22.51
62524;BME280;53689;56.878;60.672;2024-02-23T09:29:21;99653.72;;;20.61;21.11
62524;BME280;53689;56.878;60.672;2024-02-23T09:31:49;99648.47;;;20.33;19.61
62524;BME280;53689;56.878;60.672;2024-02-23T09:34:18;99661.22;;;20.49;22.06
62524;BME280;53689;56.878;60.672;2024-02-23T09:36:47;99654.31;;;20.46;20.37
62524;BME280;53689;56.878;60.672;2024-02-23T09:39:15;99657.16;;;20.45;20.23
62524;BME280;53689;56.878;60.672;2024-02-23T09:41:43;99648.25;;;20.71;21.72
62524;BME280;53689;56.878;60.672;2024-02-23T09:44:13;99639.06;;;20.55;21.54
62524;BME280;53689;56.878;60.672;2024-02-23T09:46:43;99646.44;;;20.27;21.05
62524;BME280;53689;56.878;60.672;2024-02-23T09:49:11;99651.97;;;20.51;23.17
62524;BME280;53689;56.878;60.672;2024-02-23T09:51:40;99652.03;;;20.33;20.83
62524;BME280;53689;56.878;60.672;2024-02-23T09:54:10;99652.66;;;20.09;20.96
62524;BME280;53689;56.878;60.672;2024-02-23T09:56:38;99665.25;;;20.08;22.30
62524;BME280;53689;56.878;60.672;2024-02-23T09:59:07;99657.72;;;20.30;23.41
62524;BME280;53689;56.878;60.672;2024-02-23T10:01:35;99658.81;;;20.64;22.81
62524;BME280;53689;56.878;60.672;2024-02-23T10:04:03;99667.50;;;20.58;20.93
62524;BME280;53689;56.878;60.672;2024-02-23T10:06:33;99668.72;;;20.63;23.06
62524;BME280;53689;56.878;60.672;2024-02-23T10:09:01;99663.34;;;20.63;22.34
62524;BME280;53689;56.878;60.672;2024-02-23T10:11:30;99663.41;;;20.27;21.12
62524;BME280;53689;56.878;60.672;2024-02-23T10:13:59;99673.16;;;20.46;22.15
62524;BME280;53689;56.878;60.672;2024-02-23T10:16:27;99669.47;;;20.29;22.47
62524;BME280;53689;56.878;60.672;2024-02-23T10:18:57;99673.41;;;20.61;20.69
62524;BME280;53689;56.878;60.672;2024-02-23T10:21:25;99669.91;;;20.43;22.28
62524;BME280;53689;56.878;60.672;2024-02-23T10:23:55;99668.19;;;20.60;23.36
62524;BME280;53689;56.878;60.672;2024-02-23T10:26:22;99657.97;;;20.63;22.35
62524;BME280;53689;56.878;60.672;2024-02-23T10:28:52;99669.72;;;20.36;22.63
62524;BME280;53689;56.878;60.672;2024-02-23T10:31:20;99663.59;;;20.34;22.03
62524;BME280;53689;56.878;60.672;2024-02-23T10:33:50;99673.06;;;20.38;22.05
62524;BME280;53689;56.878;60.672;2024-02-23T10:36:18;99676.78;;;20.63;22.77
62524;BME280;53689;56.878;60.672;2024-02-23T10:38:46;99679.06;;;20.76;22.32
62524;BME280;53689;56.878;60.672;2024-02-23T10:41:17;99674.25;;;20.62;20.76
62524;BME280;53689;56.878;60.672;2024-02-23T10:43:47;99668.53;;;20.83;22.82
62524;BME280;53689;56.878;60.672;2024-02-23T10:46:18;99666.41;;;20.69;22.88
62524;BME280;53689;56.878;60.672;2024-02-23T10:48:48;99670.47;;;20.73;22.41
62524;BME280;53689;56.878;60.672;2024-02-23T10:51:17;99665.56;;;20.68;21.64
62524;BME280;53689;56.878;60.672;2024-02-23T10:53:48;99669.25;;;20.41;22.28
62524;BME280;53689;56.878;60.672;2024-02-23T10:56:17;99669.63;;;20.28;22.20
62524;BME280;53689;56.878;60.672;2024-02-23T10:58:45;99665.69;;;20.58;22.05
62524;BME280;53689;56.878;60.672;2024-02-23T11:01:15;99671.06;;;20.58;24.30
62524;BME280;53689;56.878;60.672;2024-02-23T11:03:45;99671.66;;;20.52;24.51
62524;BME280;53689;56.878;60.672;2024-02-23T11:06:15;99680.09;;;20.57;23.44
62524;BME280;53689;56.878;60.672;2024-02-23T11:08:43;99669.69;;;20.18;21.87
62524;BME280;53689;56.878;60.672;2024-02-23T11:11:11;99669.47;;;20.29;22.51
62524;BME280;53689;56.878;60.672;2024-02-23T11:13:40;99666.41;;;20.24;22.40
62524;BME280;53689;56.878;60.672;2024-02-23T11:16:08;99673.22;;;20.36;22.81
62524;BME280;53689;56.878;60.672;2024-02-23T11:18:39;99672.53;;;20.34;21.25
62524;BME280;53689;56.878;60.672;2024-02-23T11:21:09;99665.63;;;20.32;23.03
62524;BME280;53689;56.878;60.672;2024-02-23T11:23:41;99672.59;;;20.43;22.35
62524;BME280;53689;56.878;60.672;2024-02-23T11:26:10;99670.59;;;20.45;22.48
62524;BME280;53689;56.878;60.672;2024-02-23T11:28:47;99664.22;;;20.46;23.07
62524;BME280;53689;56.878;60.672;2024-02-23T11:31:18;99658.63;;;20.65;23.87
62524;BME280;53689;56.878;60.672;2024-02-23T11:33:53;99668.03;;;20.61;22.30
62524;BME280;53689;56.878;60.672;2024-02-23T11:36:24;99672.22;;;20.37;21.49
62524;BME280;53689;56.878;60.672;2024-02-23T11:38:57;99674.22;;;20.54;22.50
62524;BME280;53689;56.878;60.672;2024-02-23T11:41:26;99665.97;;;20.55;22.64
62524;BME280;53689;56.878;60.672;2024-02-23T11:43:55;99665.34;;;20.61;22.48
62524;BME280;53689;56.878;60.672;2024-02-23T11:46:23;99670.28;;;20.48;23.34
62524;BME280;53689;56.878;60.672;2024-02-23T11:48:53;99681.50;;;20.61;22.83
62524;BME280;53689;56.878;60.672;2024-02-23T11:51:22;99684.31;;;20.33;22.88
62524;BME280;53689;56.878;60.672;2024-02-23T11:53:50;99687.06;;;20.42;22.69
62524;BME280;53689;56.878;60.672;2024-02-23T11:56:19;99690.41;;;20.62;23.52
62524;BME280;53689;56.878;60.672;2024-02-23T11:58:47;99686.47;;;20.74;22.71
62524;BME280;53689;56.878;60.672;2024-02-23T12:01:15;99672.25;;;20.82;23.01
62524;BME280;53689;56.878;60.672;2024-02-23T12:03:44;99674.63;;;20.67;22.50
62524;BME280;53689;56.878;60.672;2024-02-23T12:06:14;99687.13;;;20.32;21.99
62524;BME280;53689;56.878;60.672;2024-02-23T12:08:42;99678.81;;;20.43;24.05
62524;BME280;53689;56.878;60.672;2024-02-23T12:11:11;99678.88;;;20.51;23.15
62524;BME280;53689;56.878;60.672;2024-02-23T12:13:40;99672.16;;;20.74;22.54
62524;BME280;53689;56.878;60.672;2024-02-23T12:16:08;99674.97;;;20.64;19.72
62524;BME280;53689;56.878;60.672;2024-02-23T12:18:36;99682.97;;;20.56;22.99
62524;BME280;53689;56.878;60.672;2024-02-23T12:21:05;99674.44;;;20.42;21.20
62524;BME280;53689;56.878;60.672;2024-02-23T12:23:42;99666.66;;;20.57;22.91
62524;BME280;53689;56.878;60.672;2024-02-23T12:26:12;99671.31;;;20.73;23.25
62524;BME280;53689;56.878;60.672;2024-02-23T12:28:40;99682.38;;;20.88;22.75
62524;BME280;53689;56.878;60.672;2024-02-23T12:31:08;99684.84;;;20.37;21.79
62524;BME280;53689;56.878;60.672;2024-02-23T12:33:37;99680.34;;;20.46;23.85
62524;BME280;53689;56.878;60.672;2024-02-23T12:36:06;99684.78;;;20.29;22.84
62524;BME280;53689;56.878;60.672;2024-02-23T12:38:35;99677.66;;;20.46;23.18
62524;BME280;53689;56.878;60.672;2024-02-23T12:41:05;99675.31;;;20.87;23.27
62524;BME280;53689;56.878;60.672;2024-02-23T12:43:33;99671.00;;;20.76;23.25
62524;BME280;53689;56.878;60.672;2024-02-23T12:46:03;99686.88;;;20.61;21.92
62524;BME280;53689;56.878;60.672;2024-02-23T12:48:31;99686.22;;;20.68;21.17
62524;BME280;53689;56.878;60.672;2024-02-23T12:50:59;99699.69;;;20.68;22.15
62524;BME280;53689;56.878;60.672;2024-02-23T12:53:32;99703.38;;;20.66;22.62
62524;BME280;53689;56.878;60.672;2024-02-23T12:56:01;99704.13;;;20.32;20.85